sensor_id;sensor_type;location;lat;lon;timestamp;temperature;humidity
50556;DHT22;36508;52.512;13.450;2023-04-24T00:01:30;14.10;99.90
50556;DHT22;36508;52.512;13.450;2023-04-24T00:03:57;14.00;99.90
50556;DHT22;36508;52.512;13.450;2023-04-24T00:06:25;14.00;99.90
50556;DHT22;36508;52.512;13.450;2023-04-24T00:08:59;14.00;99.90
50556;DHT22;36508;52.512;13.450;2023-04-24T00:11:25;14.00;99.90
50556;DHT22;36508;52.512;13.450;2023-04-24T00:13:51;14.00;99.90
50556;DHT22;36508;52.512;13.450;2023-04-24T00:16:16;13.90;99.90
50556;DHT22;36508;52.512;13.450;2023-04-24T00:18:42;13.90;99.90
50556;DHT22;36508;52.512;13.450;2023-04-24T00:21:07;13.90;99.90
50556;DHT22;36508;52.512;13.450;2023-04-24T00:23:33;13.90;99.90
50556;DHT22;36508;52.512;13.450;2023-04-24T00:25:59;13.80;99.90
50556;DHT22;36508;52.512;13.450;2023-04-24T00:28:24;13.90;99.90
50556;DHT22;36508;52.512;13.450;2023-04-24T00:30:50;13.80;99.90
50556;DHT22;36508;52.512;13.450;2023-04-24T00:33:16;13.90;99.90
50556;DHT22;36508;52.512;13.450;2023-04-24T00:35:41;13.80;99.90
50556;DHT22;36508;52.512;13.450;2023-04-24T00:38:07;13.80;99.90
50556;DHT22;36508;52.512;13.450;2023-04-24T00:40:33;13.70;99.90
50556;DHT22;36508;52.512;13.450;2023-04-24T00:42:58;13.70;99.90
50556;DHT22;36508;52.512;13.450;2023-04-24T00:45:25;13.60;99.90
50556;DHT22;36508;52.512;13.450;2023-04-24T00:47:52;13.60;99.90
50556;DHT22;36508;52.512;13.450;2023-04-24T00:50:18;13.60;99.90
50556;DHT22;36508;52.512;13.450;2023-04-24T00:52:45;13.70;99.90
50556;DHT22;36508;52.512;13.450;2023-04-24T00:55:31;13.60;99.90
50556;DHT22;36508;52.512;13.450;2023-04-24T00:57:57;13.70;99.90
50556;DHT22;36508;52.512;13.450;2023-04-24T01:00:23;13.60;99.90
50556;DHT22;36508;52.512;13.450;2023-04-24T01:02:49;13.70;99.90
50556;DHT22;36508;52.512;13.450;2023-04-24T01:05:17;13.60;99.90
50556;DHT22;36508;52.512;13.450;2023-04-24T01:07:44;13.60;99.90
50556;DHT22;36508;52.512;13.450;2023-04-24T01:10:11;13.70;99.90
50556;DHT22;36508;52.512;13.450;2023-04-24T01:12:38;13.60;99.90
50556;DHT22;36508;52.512;13.450;2023-04-24T01:15:04;13.50;99.90
50556;DHT22;36508;52.512;13.450;2023-04-24T01:17:32;13.40;99.90
50556;DHT22;36508;52.512;13.450;2023-04-24T01:19:58;13.40;99.90
50556;DHT22;36508;52.512;13.450;2023-04-24T01:22:25;13.50;99.90
50556;DHT22;36508;52.512;13.450;2023-04-24T01:24:52;13.50;99.90
50556;DHT22;36508;52.512;13.450;2023-04-24T01:27:18;13.50;99.90
50556;DHT22;36508;52.512;13.450;2023-04-24T01:29:45;13.40;99.90
50556;DHT22;36508;52.512;13.450;2023-04-24T01:32:11;13.40;99.90
50556;DHT22;36508;52.512;13.450;2023-04-24T01:34:37;13.50;99.90
50556;DHT22;36508;52.512;13.450;2023-04-24T01:37:02;13.40;99.90
50556;DHT22;36508;52.512;13.450;2023-04-24T01:39:28;13.40;99.90
50556;DHT22;36508;52.512;13.450;2023-04-24T01:41:55;13.50;99.90
50556;DHT22;36508;52.512;13.450;2023-04-24T01:44:21;13.50;99.90
50556;DHT22;36508;52.512;13.450;2023-04-24T01:46:47;13.50;99.90
50556;DHT22;36508;52.512;13.450;2023-04-24T01:49:13;13.50;99.90
50556;DHT22;36508;52.512;13.450;2023-04-24T01:51:41;13.40;99.90
50556;DHT22;36508;52.512;13.450;2023-04-24T01:54:07;13.20;99.90
50556;DHT22;36508;52.512;13.450;2023-04-24T01:56:33;13.20;99.90
50556;DHT22;36508;52.512;13.450;2023-04-24T01:59:06;13.10;99.90
50556;DHT22;36508;52.512;13.450;2023-04-24T02:01:59;13.20;99.90
50556;DHT22;36508;52.512;13.450;2023-04-24T02:04:24;13.30;99.90
50556;DHT22;36508;52.512;13.450;2023-04-24T02:06:50;13.30;99.90
50556;DHT22;36508;52.512;13.450;2023-04-24T02:09:16;13.40;99.90
50556;DHT22;36508;52.512;13.450;2023-04-24T02:11:42;13.10;99.90
50556;DHT22;36508;52.512;13.450;2023-04-24T02:14:07;13.10;99.90
50556;DHT22;36508;52.512;13.450;2023-04-24T02:16:33;13.10;99.90
50556;DHT22;36508;52.512;13.450;2023-04-24T02:19:02;13.30;99.90
50556;DHT22;36508;52.512;13.450;2023-04-24T02:21:27;13.40;99.90
50556;DHT22;36508;52.512;13.450;2023-04-24T02:23:54;13.30;99.90
50556;DHT22;36508;52.512;13.450;2023-04-24T02:26:19;13.30;99.90
50556;DHT22;36508;52.512;13.450;2023-04-24T02:28:45;13.40;99.90
50556;DHT22;36508;52.512;13.450;2023-04-24T02:31:10;13.40;99.90
50556;DHT22;36508;52.512;13.450;2023-04-24T02:33:36;13.40;99.90
50556;DHT22;36508;52.512;13.450;2023-04-24T02:36:02;13.40;99.90
50556;DHT22;36508;52.512;13.450;2023-04-24T02:38:28;13.50;99.90
50556;DHT22;36508;52.512;13.450;2023-04-24T02:40:54;13.50;99.90
50556;DHT22;36508;52.512;13.450;2023-04-24T02:43:20;13.40;99.90
50556;DHT22;36508;52.512;13.450;2023-04-24T02:45:45;13.30;99.90
50556;DHT22;36508;52.512;13.450;2023-04-24T02:48:11;13.40;99.90
50556;DHT22;36508;52.512;13.450;2023-04-24T02:50:37;13.20;99.90
50556;DHT22;36508;52.512;13.450;2023-04-24T02:53:04;13.30;99.90
50556;DHT22;36508;52.512;13.450;2023-04-24T02:55:29;13.40;99.90
50556;DHT22;36508;52.512;13.450;2023-04-24T02:57:55;13.40;99.90
50556;DHT22;36508;52.512;13.450;2023-04-24T03:00:21;13.40;99.90
50556;DHT22;36508;52.512;13.450;2023-04-24T03:02:48;13.30;99.90
50556;DHT22;36508;52.512;13.450;2023-04-24T03:05:15;13.20;99.90
50556;DHT22;36508;52.512;13.450;2023-04-24T03:07:41;13.30;99.90
50556;DHT22;36508;52.512;13.450;2023-04-24T03:10:07;13.40;99.90
50556;DHT22;36508;52.512;13.450;2023-04-24T03:12:33;13.50;99.90
50556;DHT22;36508;52.512;13.450;2023-04-24T03:14:59;13.40;99.90
50556;DHT22;36508;52.512;13.450;2023-04-24T03:17:24;13.30;99.90
50556;DHT22;36508;52.512;13.450;2023-04-24T03:19:50;13.50;99.90
50556;DHT22;36508;52.512;13.450;2023-04-24T03:22:16;13.50;99.90
50556;DHT22;36508;52.512;13.450;2023-04-24T03:24:41;13.50;99.90
50556;DHT22;36508;52.512;13.450;2023-04-24T03:27:07;13.30;99.90
50556;DHT22;36508;52.512;13.450;2023-04-24T03:29:33;13.30;99.90
50556;DHT22;36508;52.512;13.450;2023-04-24T03:31:59;13.40;99.90
50556;DHT22;36508;52.512;13.450;2023-04-24T03:34:24;13.30;99.90
50556;DHT22;36508;52.512;13.450;2023-04-24T03:36:50;13.20;99.90
50556;DHT22;36508;52.512;13.450;2023-04-24T03:39:16;13.20;99.90
50556;DHT22;36508;52.512;13.450;2023-04-24T03:41:42;13.10;99.90
50556;DHT22;36508;52.512;13.450;2023-04-24T03:44:08;13.30;99.90
50556;DHT22;36508;52.512;13.450;2023-04-24T03:46:33;13.30;99.90
50556;DHT22;36508;52.512;13.450;2023-04-24T03:48:59;13.40;99.90
50556;DHT22;36508;52.512;13.450;2023-04-24T03:51:24;13.60;99.90
50556;DHT22;36508;52.512;13.450;2023-04-24T03:53:50;13.50;99.90
50556;DHT22;36508;52.512;13.450;2023-04-24T03:56:16;13.40;99.90
50556;DHT22;36508;52.512;13.450;2023-04-24T03:58:42;13.50;99.90
50556;DHT22;36508;52.512;13.450;2023-04-24T04:01:08;13.50;99.90
50556;DHT22;36508;52.512;13.450;2023-04-24T04:03:33;13.50;99.90
50556;DHT22;36508;52.512;13.450;2023-04-24T04:05:59;13.60;99.90
50556;DHT22;36508;52.512;13.450;2023-04-24T04:08:25;13.60;99.90
50556;DHT22;36508;52.512;13.450;2023-04-24T04:10:51;13.60;99.90
50556;DHT22;36508;52.512;13.450;2023-04-24T04:13:16;13.50;99.90
50556;DHT22;36508;52.512;13.450;2023-04-24T04:15:42;13.40;99.90
50556;DHT22;36508;52.512;13.450;2023-04-24T04:18:07;13.50;99.90
50556;DHT22;36508;52.512;13.450;2023-04-24T04:20:33;13.50;99.90
50556;DHT22;36508;52.512;13.450;2023-04-24T04:22:59;13.30;99.90
50556;DHT22;36508;52.512;13.450;2023-04-24T04:25:25;13.40;99.90
50556;DHT22;36508;52.512;13.450;2023-04-24T04:27:50;13.40;99.90
50556;DHT22;36508;52.512;13.450;2023-04-24T04:30:17;13.40;99.90
50556;DHT22;36508;52.512;13.450;2023-04-24T04:32:43;13.30;99.90
50556;DHT22;36508;52.512;13.450;2023-04-24T04:35:09;13.30;99.90
50556;DHT22;36508;52.512;13.450;2023-04-24T04:37:35;13.40;99.90
50556;DHT22;36508;52.512;13.450;2023-04-24T04:40:02;13.30;99.90
50556;DHT22;36508;52.512;13.450;2023-04-24T04:42:37;13.30;99.90
50556;DHT22;36508;52.512;13.450;2023-04-24T04:45:09;13.20;99.90
50556;DHT22;36508;52.512;13.450;2023-04-24T04:47:35;13.30;99.90
50556;DHT22;36508;52.512;13.450;2023-04-24T04:50:00;13.40;99.90
50556;DHT22;36508;52.512;13.450;2023-04-24T04:52:26;13.40;99.90
50556;DHT22;36508;52.512;13.450;2023-04-24T04:54:52;13.50;99.90
50556;DHT22;36508;52.512;13.450;2023-04-24T04:57:18;13.50;99.90
50556;DHT22;36508;52.512;13.450;2023-04-24T04:59:44;13.50;99.90
50556;DHT22;36508;52.512;13.450;2023-04-24T05:02:10;13.50;99.90
50556;DHT22;36508;52.512;13.450;2023-04-24T05:04:35;13.40;99.90
50556;DHT22;36508;52.512;13.450;2023-04-24T05:07:01;13.40;99.90
50556;DHT22;36508;52.512;13.450;2023-04-24T05:09:27;13.50;99.90
50556;DHT22;36508;52.512;13.450;2023-04-24T05:11:54;13.50;99.90
50556;DHT22;36508;52.512;13.450;2023-04-24T05:14:20;13.50;99.90
50556;DHT22;36508;52.512;13.450;2023-04-24T05:16:47;13.50;99.90
50556;DHT22;36508;52.512;13.450;2023-04-24T05:19:13;13.60;99.90
50556;DHT22;36508;52.512;13.450;2023-04-24T05:21:39;13.40;99.90
50556;DHT22;36508;52.512;13.450;2023-04-24T05:24:06;13.50;99.90
50556;DHT22;36508;52.512;13.450;2023-04-24T05:26:32;13.40;99.90
50556;DHT22;36508;52.512;13.450;2023-04-24T05:28:57;13.60;99.90
50556;DHT22;36508;52.512;13.450;2023-04-24T05:31:23;13.50;99.90
50556;DHT22;36508;52.512;13.450;2023-04-24T05:33:49;13.40;99.90
50556;DHT22;36508;52.512;13.450;2023-04-24T05:36:15;13.40;99.90
50556;DHT22;36508;52.512;13.450;2023-04-24T05:38:41;13.40;99.90
50556;DHT22;36508;52.512;13.450;2023-04-24T05:41:06;13.50;99.90
50556;DHT22;36508;52.512;13.450;2023-04-24T05:43:32;13.40;99.90
50556;DHT22;36508;52.512;13.450;2023-04-24T05:45:57;13.30;99.90
50556;DHT22;36508;52.512;13.450;2023-04-24T05:48:23;13.30;99.90
50556;DHT22;36508;52.512;13.450;2023-04-24T05:50:49;13.30;99.90
50556;DHT22;36508;52.512;13.450;2023-04-24T05:53:16;13.40;99.90
50556;DHT22;36508;52.512;13.450;2023-04-24T05:55:43;13.40;99.90
50556;DHT22;36508;52.512;13.450;2023-04-24T05:58:09;13.40;99.90
50556;DHT22;36508;52.512;13.450;2023-04-24T06:00:35;13.60;99.90
50556;DHT22;36508;52.512;13.450;2023-04-24T06:03:00;13.60;99.90
50556;DHT22;36508;52.512;13.450;2023-04-24T06:05:26;13.70;99.90
50556;DHT22;36508;52.512;13.450;2023-04-24T06:07:52;13.70;99.90
50556;DHT22;36508;52.512;13.450;2023-04-24T06:10:17;13.70;99.90
50556;DHT22;36508;52.512;13.450;2023-04-24T06:12:43;13.60;99.90
50556;DHT22;36508;52.512;13.450;2023-04-24T06:15:09;13.60;99.90
50556;DHT22;36508;52.512;13.450;2023-04-24T06:17:35;13.60;99.90
50556;DHT22;36508;52.512;13.450;2023-04-24T06:20:01;13.70;99.90
50556;DHT22;36508;52.512;13.450;2023-04-24T06:22:29;13.60;99.90
50556;DHT22;36508;52.512;13.450;2023-04-24T06:24:55;13.60;99.90
50556;DHT22;36508;52.512;13.450;2023-04-24T06:27:20;13.60;99.90
50556;DHT22;36508;52.512;13.450;2023-04-24T06:29:46;13.60;99.90
50556;DHT22;36508;52.512;13.450;2023-04-24T06:32:17;13.60;99.90
50556;DHT22;36508;52.512;13.450;2023-04-24T06:34:43;13.50;99.90
50556;DHT22;36508;52.512;13.450;2023-04-24T06:37:09;13.70;99.90
50556;DHT22;36508;52.512;13.450;2023-04-24T06:39:34;13.70;99.90
50556;DHT22;36508;52.512;13.450;2023-04-24T06:42:00;13.90;99.90
50556;DHT22;36508;52.512;13.450;2023-04-24T06:44:25;14.00;99.90
50556;DHT22;36508;52.512;13.450;2023-04-24T06:46:52;14.10;99.90
50556;DHT22;36508;52.512;13.450;2023-04-24T06:49:18;14.10;99.90
50556;DHT22;36508;52.512;13.450;2023-04-24T06:51:43;14.10;99.90
50556;DHT22;36508;52.512;13.450;2023-04-24T06:54:10;14.20;99.90
50556;DHT22;36508;52.512;13.450;2023-04-24T06:56:36;14.30;99.90
50556;DHT22;36508;52.512;13.450;2023-04-24T06:59:01;14.50;99.90
50556;DHT22;36508;52.512;13.450;2023-04-24T07:01:27;14.60;99.90
50556;DHT22;36508;52.512;13.450;2023-04-24T07:03:53;14.70;99.90
50556;DHT22;36508;52.512;13.450;2023-04-24T07:06:18;14.70;99.90
50556;DHT22;36508;52.512;13.450;2023-04-24T07:08:48;14.80;99.90
50556;DHT22;36508;52.512;13.450;2023-04-24T07:11:13;14.80;99.90
50556;DHT22;36508;52.512;13.450;2023-04-24T07:13:39;14.80;99.90
50556;DHT22;36508;52.512;13.450;2023-04-24T07:16:07;14.90;99.90
50556;DHT22;36508;52.512;13.450;2023-04-24T07:18:33;14.90;99.90
50556;DHT22;36508;52.512;13.450;2023-04-24T07:21:00;14.80;99.90
50556;DHT22;36508;52.512;13.450;2023-04-24T07:23:26;14.90;99.90
50556;DHT22;36508;52.512;13.450;2023-04-24T07:25:51;15.00;99.90
50556;DHT22;36508;52.512;13.450;2023-04-24T07:28:17;15.00;99.90
50556;DHT22;36508;52.512;13.450;2023-04-24T07:30:43;15.00;99.90
50556;DHT22;36508;52.512;13.450;2023-04-24T07:33:09;15.10;99.90
50556;DHT22;36508;52.512;13.450;2023-04-24T07:35:36;15.20;99.90
50556;DHT22;36508;52.512;13.450;2023-04-24T07:38:02;15.40;99.90
50556;DHT22;36508;52.512;13.450;2023-04-24T07:40:28;15.50;99.90
50556;DHT22;36508;52.512;13.450;2023-04-24T07:42:53;15.40;99.90
50556;DHT22;36508;52.512;13.450;2023-04-24T07:45:19;15.20;99.90
50556;DHT22;36508;52.512;13.450;2023-04-24T07:47:44;15.10;99.90
50556;DHT22;36508;52.512;13.450;2023-04-24T07:50:11;15.10;99.90
50556;DHT22;36508;52.512;13.450;2023-04-24T07:52:38;15.20;99.90
50556;DHT22;36508;52.512;13.450;2023-04-24T07:55:04;15.20;99.90
50556;DHT22;36508;52.512;13.450;2023-04-24T07:57:30;15.30;99.90
50556;DHT22;36508;52.512;13.450;2023-04-24T07:59:55;15.30;99.90
50556;DHT22;36508;52.512;13.450;2023-04-24T08:02:21;15.30;99.90
50556;DHT22;36508;52.512;13.450;2023-04-24T08:04:54;15.50;99.90
50556;DHT22;36508;52.512;13.450;2023-04-24T08:07:20;15.70;99.90
50556;DHT22;36508;52.512;13.450;2023-04-24T08:09:45;15.70;99.90
50556;DHT22;36508;52.512;13.450;2023-04-24T08:12:11;15.80;99.90
50556;DHT22;36508;52.512;13.450;2023-04-24T08:14:37;16.00;99.90
50556;DHT22;36508;52.512;13.450;2023-04-24T08:17:03;15.90;99.90
50556;DHT22;36508;52.512;13.450;2023-04-24T08:19:28;16.00;99.90
50556;DHT22;36508;52.512;13.450;2023-04-24T08:21:54;16.00;99.90
50556;DHT22;36508;52.512;13.450;2023-04-24T08:24:20;16.20;99.90
50556;DHT22;36508;52.512;13.450;2023-04-24T08:26:46;16.30;99.90
50556;DHT22;36508;52.512;13.450;2023-04-24T08:29:11;16.20;99.90
50556;DHT22;36508;52.512;13.450;2023-04-24T08:31:37;16.30;99.90
50556;DHT22;36508;52.512;13.450;2023-04-24T08:34:03;16.50;99.90
50556;DHT22;36508;52.512;13.450;2023-04-24T08:36:28;16.60;99.90
50556;DHT22;36508;52.512;13.450;2023-04-24T08:38:55;16.90;99.90
50556;DHT22;36508;52.512;13.450;2023-04-24T08:41:20;16.90;99.90
50556;DHT22;36508;52.512;13.450;2023-04-24T08:43:51;17.10;99.90
50556;DHT22;36508;52.512;13.450;2023-04-24T08:46:19;17.40;99.90
50556;DHT22;36508;52.512;13.450;2023-04-24T08:48:45;17.50;99.90
50556;DHT22;36508;52.512;13.450;2023-04-24T08:51:11;17.40;99.90
50556;DHT22;36508;52.512;13.450;2023-04-24T08:53:37;17.40;99.90
50556;DHT22;36508;52.512;13.450;2023-04-24T08:56:03;17.60;99.90
50556;DHT22;36508;52.512;13.450;2023-04-24T08:58:29;17.70;99.90
50556;DHT22;36508;52.512;13.450;2023-04-24T09:00:57;17.60;99.90
50556;DHT22;36508;52.512;13.450;2023-04-24T09:03:22;17.40;99.90
50556;DHT22;36508;52.512;13.450;2023-04-24T09:05:49;17.50;99.90
50556;DHT22;36508;52.512;13.450;2023-04-24T09:08:17;17.40;99.90
50556;DHT22;36508;52.512;13.450;2023-04-24T09:10:43;17.60;99.90
50556;DHT22;36508;52.512;13.450;2023-04-24T09:13:09;17.50;99.90
50556;DHT22;36508;52.512;13.450;2023-04-24T09:15:39;17.70;99.90
50556;DHT22;36508;52.512;13.450;2023-04-24T09:18:05;17.70;99.90
50556;DHT22;36508;52.512;13.450;2023-04-24T09:20:32;17.60;99.90
50556;DHT22;36508;52.512;13.450;2023-04-24T09:23:01;17.60;99.90
50556;DHT22;36508;52.512;13.450;2023-04-24T09:25:34;17.60;99.90
50556;DHT22;36508;52.512;13.450;2023-04-24T09:28:04;17.30;99.90
50556;DHT22;36508;52.512;13.450;2023-04-24T09:30:30;17.20;99.90
50556;DHT22;36508;52.512;13.450;2023-04-24T09:33:15;17.50;99.90
50556;DHT22;36508;52.512;13.450;2023-04-24T09:35:42;17.70;99.90
50556;DHT22;36508;52.512;13.450;2023-04-24T09:38:10;17.60;99.90
50556;DHT22;36508;52.512;13.450;2023-04-24T09:40:36;17.40;99.90
50556;DHT22;36508;52.512;13.450;2023-04-24T09:43:02;17.20;99.90
50556;DHT22;36508;52.512;13.450;2023-04-24T09:45:38;17.30;99.90
50556;DHT22;36508;52.512;13.450;2023-04-24T09:48:09;17.40;99.90
50556;DHT22;36508;52.512;13.450;2023-04-24T09:50:35;17.60;99.90
50556;DHT22;36508;52.512;13.450;2023-04-24T09:53:05;17.60;99.90
50556;DHT22;36508;52.512;13.450;2023-04-24T09:55:39;17.30;99.90
50556;DHT22;36508;52.512;13.450;2023-04-24T09:58:08;17.30;99.90
50556;DHT22;36508;52.512;13.450;2023-04-24T10:00:33;17.10;99.90
50556;DHT22;36508;52.512;13.450;2023-04-24T10:03:01;17.30;99.90
50556;DHT22;36508;52.512;13.450;2023-04-24T10:08:02;17.50;99.90
50556;DHT22;36508;52.512;13.450;2023-04-24T10:10:29;17.60;99.90
50556;DHT22;36508;52.512;13.450;2023-04-24T10:12:55;17.40;99.90
50556;DHT22;36508;52.512;13.450;2023-04-24T10:15:21;17.60;99.90
50556;DHT22;36508;52.512;13.450;2023-04-24T10:17:51;17.80;99.90
50556;DHT22;36508;52.512;13.450;2023-04-24T10:20:22;18.10;99.90
50556;DHT22;36508;52.512;13.450;2023-04-24T10:22:49;18.50;99.90
50556;DHT22;36508;52.512;13.450;2023-04-24T10:25:20;18.90;99.90
50556;DHT22;36508;52.512;13.450;2023-04-24T10:27:47;19.10;99.90
50556;DHT22;36508;52.512;13.450;2023-04-24T10:30:13;19.80;99.90
50556;DHT22;36508;52.512;13.450;2023-04-24T10:32:39;19.90;99.90
50556;DHT22;36508;52.512;13.450;2023-04-24T10:35:07;20.30;99.90
50556;DHT22;36508;52.512;13.450;2023-04-24T10:37:48;20.20;99.90
50556;DHT22;36508;52.512;13.450;2023-04-24T10:40:26;19.80;99.90
50556;DHT22;36508;52.512;13.450;2023-04-24T10:42:52;19.10;99.90
50556;DHT22;36508;52.512;13.450;2023-04-24T10:45:20;18.60;99.90
50556;DHT22;36508;52.512;13.450;2023-04-24T10:47:57;18.30;99.90
50556;DHT22;36508;52.512;13.450;2023-04-24T10:50:25;17.80;99.90
50556;DHT22;36508;52.512;13.450;2023-04-24T10:52:51;17.50;99.90
50556;DHT22;36508;52.512;13.450;2023-04-24T10:55:50;17.60;99.90
50556;DHT22;36508;52.512;13.450;2023-04-24T10:58:23;17.50;99.90
50556;DHT22;36508;52.512;13.450;2023-04-24T11:00:59;17.40;99.90
50556;DHT22;36508;52.512;13.450;2023-04-24T11:03:30;17.60;99.90
50556;DHT22;36508;52.512;13.450;2023-04-24T11:06:04;17.80;99.90
50556;DHT22;36508;52.512;13.450;2023-04-24T11:08:44;18.10;99.90
50556;DHT22;36508;52.512;13.450;2023-04-24T11:11:10;18.20;99.90
50556;DHT22;36508;52.512;13.450;2023-04-24T11:19:08;22.00;99.90
50556;DHT22;36508;52.512;13.450;2023-04-24T11:21:47;24.00;99.90
50556;DHT22;36508;52.512;13.450;2023-04-24T11:24:53;24.20;99.90
50556;DHT22;36508;52.512;13.450;2023-04-24T11:27:20;22.10;99.90
50556;DHT22;36508;52.512;13.450;2023-04-24T11:37:28;18.60;99.90
50556;DHT22;36508;52.512;13.450;2023-04-24T11:39:57;18.30;99.90
50556;DHT22;36508;52.512;13.450;2023-04-24T11:42:24;17.60;99.90
50556;DHT22;36508;52.512;13.450;2023-04-24T11:44:52;16.90;99.90
50556;DHT22;36508;52.512;13.450;2023-04-24T11:47:18;16.70;99.90
50556;DHT22;36508;52.512;13.450;2023-04-24T11:49:44;16.30;99.90
50556;DHT22;36508;52.512;13.450;2023-04-24T11:52:09;17.30;99.90
50556;DHT22;36508;52.512;13.450;2023-04-24T11:54:36;19.90;99.90
50556;DHT22;36508;52.512;13.450;2023-04-24T11:57:05;21.90;99.90
50556;DHT22;36508;52.512;13.450;2023-04-24T11:59:36;22.50;99.90
50556;DHT22;36508;52.512;13.450;2023-04-24T12:02:02;24.20;99.90
50556;DHT22;36508;52.512;13.450;2023-04-24T12:04:41;25.90;99.90
50556;DHT22;36508;52.512;13.450;2023-04-24T12:07:07;27.40;99.90
50556;DHT22;36508;52.512;13.450;2023-04-24T12:10:04;25.30;99.90
50556;DHT22;36508;52.512;13.450;2023-04-24T12:12:30;24.50;99.90
50556;DHT22;36508;52.512;13.450;2023-04-24T12:14:57;25.30;99.90
50556;DHT22;36508;52.512;13.450;2023-04-24T12:17:28;25.20;99.90
50556;DHT22;36508;52.512;13.450;2023-04-24T12:19:58;25.20;99.90
50556;DHT22;36508;52.512;13.450;2023-04-24T12:22:24;24.40;99.90
50556;DHT22;36508;52.512;13.450;2023-04-24T12:25:03;24.00;99.90
50556;DHT22;36508;52.512;13.450;2023-04-24T12:27:34;25.40;99.90
50556;DHT22;36508;52.512;13.450;2023-04-24T12:30:00;24.60;99.90
50556;DHT22;36508;52.512;13.450;2023-04-24T12:32:26;24.60;99.90
50556;DHT22;36508;52.512;13.450;2023-04-24T12:34:53;23.60;99.90
50556;DHT22;36508;52.512;13.450;2023-04-24T12:37:20;23.00;99.90
50556;DHT22;36508;52.512;13.450;2023-04-24T12:40:07;21.60;99.90
50556;DHT22;36508;52.512;13.450;2023-04-24T12:42:33;21.30;99.90
50556;DHT22;36508;52.512;13.450;2023-04-24T12:45:01;20.60;99.90
50556;DHT22;36508;52.512;13.450;2023-04-24T12:47:30;20.30;99.90
50556;DHT22;36508;52.512;13.450;2023-04-24T12:49:57;20.10;99.90
50556;DHT22;36508;52.512;13.450;2023-04-24T12:52:23;20.10;99.90
50556;DHT22;36508;52.512;13.450;2023-04-24T12:54:50;20.10;99.90
50556;DHT22;36508;52.512;13.450;2023-04-24T12:57:16;19.70;99.90
50556;DHT22;36508;52.512;13.450;2023-04-24T12:59:42;19.60;99.90
50556;DHT22;36508;52.512;13.450;2023-04-24T13:02:07;19.80;99.90
50556;DHT22;36508;52.512;13.450;2023-04-24T13:04:34;19.90;99.90
50556;DHT22;36508;52.512;13.450;2023-04-24T13:07:00;19.90;99.90
50556;DHT22;36508;52.512;13.450;2023-04-24T13:09:25;20.50;99.90
50556;DHT22;36508;52.512;13.450;2023-04-24T13:11:51;20.70;98.80
50556;DHT22;36508;52.512;13.450;2023-04-24T13:14:16;20.00;98.20
50556;DHT22;36508;52.512;13.450;2023-04-24T13:16:42;19.40;98.60
50556;DHT22;36508;52.512;13.450;2023-04-24T13:19:08;19.30;99.10
50556;DHT22;36508;52.512;13.450;2023-04-24T13:21:33;19.90;97.90
50556;DHT22;36508;52.512;13.450;2023-04-24T13:23:59;21.60;95.30
50556;DHT22;36508;52.512;13.450;2023-04-24T13:26:25;21.20;93.00
50556;DHT22;36508;52.512;13.450;2023-04-24T13:28:50;21.20;93.20
50556;DHT22;36508;52.512;13.450;2023-04-24T13:31:16;21.80;93.00
50556;DHT22;36508;52.512;13.450;2023-04-24T13:33:42;22.60;92.90
50556;DHT22;36508;52.512;13.450;2023-04-24T13:36:08;23.20;90.90
50556;DHT22;36508;52.512;13.450;2023-04-24T13:38:34;23.80;88.40
50556;DHT22;36508;52.512;13.450;2023-04-24T13:41:00;23.20;88.70
50556;DHT22;36508;52.512;13.450;2023-04-24T13:43:26;21.70;86.30
50556;DHT22;36508;52.512;13.450;2023-04-24T13:45:52;20.90;85.90
50556;DHT22;36508;52.512;13.450;2023-04-24T13:48:17;21.20;85.00
50556;DHT22;36508;52.512;13.450;2023-04-24T13:50:43;21.80;84.60
50556;DHT22;36508;52.512;13.450;2023-04-24T13:53:10;22.30;84.20
50556;DHT22;36508;52.512;13.450;2023-04-24T13:55:35;22.60;84.30
50556;DHT22;36508;52.512;13.450;2023-04-24T13:58:01;23.00;84.90
50556;DHT22;36508;52.512;13.450;2023-04-24T14:00:28;23.00;83.90
50556;DHT22;36508;52.512;13.450;2023-04-24T14:02:53;22.40;85.80
50556;DHT22;36508;52.512;13.450;2023-04-24T14:05:19;22.50;81.70
50556;DHT22;36508;52.512;13.450;2023-04-24T14:07:46;21.70;82.70
50556;DHT22;36508;52.512;13.450;2023-04-24T14:10:11;21.60;83.80
50556;DHT22;36508;52.512;13.450;2023-04-24T14:12:37;21.20;83.90
50556;DHT22;36508;52.512;13.450;2023-04-24T14:15:04;20.70;84.90
50556;DHT22;36508;52.512;13.450;2023-04-24T14:17:30;20.20;84.90
50556;DHT22;36508;52.512;13.450;2023-04-24T14:20:02;19.90;87.40
50556;DHT22;36508;52.512;13.450;2023-04-24T14:22:29;20.00;87.70
50556;DHT22;36508;52.512;13.450;2023-04-24T14:24:54;20.00;87.20
50556;DHT22;36508;52.512;13.450;2023-04-24T14:27:20;19.80;87.20
50556;DHT22;36508;52.512;13.450;2023-04-24T14:29:46;19.60;88.70
50556;DHT22;36508;52.512;13.450;2023-04-24T14:32:11;20.30;88.30
50556;DHT22;36508;52.512;13.450;2023-04-24T14:34:40;20.10;87.60
50556;DHT22;36508;52.512;13.450;2023-04-24T14:37:05;20.20;88.10
50556;DHT22;36508;52.512;13.450;2023-04-24T14:39:31;20.20;87.20
50556;DHT22;36508;52.512;13.450;2023-04-24T14:41:57;20.40;86.20
50556;DHT22;36508;52.512;13.450;2023-04-24T14:44:22;20.40;84.20
50556;DHT22;36508;52.512;13.450;2023-04-24T14:46:48;19.70;83.30
50556;DHT22;36508;52.512;13.450;2023-04-24T14:49:14;19.30;85.60
50556;DHT22;36508;52.512;13.450;2023-04-24T14:51:40;18.90;86.40
50556;DHT22;36508;52.512;13.450;2023-04-24T14:54:06;18.80;88.80
50556;DHT22;36508;52.512;13.450;2023-04-24T14:56:32;18.90;89.60
50556;DHT22;36508;52.512;13.450;2023-04-24T14:58:58;19.80;89.70
50556;DHT22;36508;52.512;13.450;2023-04-24T15:01:23;20.60;86.00
50556;DHT22;36508;52.512;13.450;2023-04-24T15:03:49;20.10;86.70
50556;DHT22;36508;52.512;13.450;2023-04-24T15:06:15;18.90;86.40
50556;DHT22;36508;52.512;13.450;2023-04-24T15:08:41;18.60;88.50
50556;DHT22;36508;52.512;13.450;2023-04-24T15:11:07;18.90;90.10
50556;DHT22;36508;52.512;13.450;2023-04-24T15:13:33;18.70;90.30
50556;DHT22;36508;52.512;13.450;2023-04-24T15:15:59;18.40;90.80
50556;DHT22;36508;52.512;13.450;2023-04-24T15:18:24;18.10;91.20
50556;DHT22;36508;52.512;13.450;2023-04-24T15:20:50;18.20;91.60
50556;DHT22;36508;52.512;13.450;2023-04-24T15:23:16;18.20;91.80
50556;DHT22;36508;52.512;13.450;2023-04-24T15:25:41;18.60;91.80
50556;DHT22;36508;52.512;13.450;2023-04-24T15:28:07;18.40;91.90
50556;DHT22;36508;52.512;13.450;2023-04-24T15:30:32;18.40;91.80